createdAt,value
2018-05-26T00:00:30.518Z,73.63
2018-05-26T00:03:00.832Z,72.00
2018-05-26T00:05:31.270Z,66.23
2018-05-26T00:08:00.399Z,56.17
2018-05-26T00:10:30.482Z,60.00
2018-05-26T00:12:59.564Z,56.70
2018-05-26T00:15:29.492Z,62.70
2018-05-26T00:17:58.611Z,67.53
2018-05-26T00:20:28.873Z,86.30
2018-05-26T00:23:03.908Z,65.57
2018-05-26T00:25:33.473Z,73.73
2018-05-26T00:28:03.377Z,71.73
2018-05-26T00:30:32.682Z,74.37
2018-05-26T00:33:02.328Z,55.40
2018-05-26T00:35:31.573Z,49.97
2018-05-26T00:38:00.787Z,58.23
2018-05-26T00:40:30.552Z,47.70
2018-05-26T00:45:40.984Z,60.77
2018-05-26T00:48:10.231Z,56.70
2018-05-26T00:50:41.112Z,52.00
2018-05-26T00:53:10.536Z,54.03
2018-05-26T00:55:40.546Z,48.83
2018-05-26T00:58:10.112Z,52.03
2018-05-26T01:00:40.314Z,49.37
2018-05-26T01:03:16.658Z,46.23
2018-05-26T01:05:46.719Z,53.60
2018-05-26T01:08:23.131Z,41.00
2018-05-26T01:11:02.033Z,45.43
2018-05-26T01:13:36.826Z,54.83
2018-05-26T01:16:06.920Z,50.27
2018-05-26T01:21:09.397Z,51.70
2018-05-26T01:23:39.360Z,55.73
2018-05-26T01:26:08.712Z,61.33
2018-05-26T01:28:39.772Z,75.13
2018-05-26T01:31:11.082Z,82.53
2018-05-26T01:33:44.625Z,75.47
2018-05-26T01:36:15.173Z,59.73
2018-05-26T01:38:53.246Z,59.20
2018-05-26T01:41:28.285Z,60.70
2018-05-26T01:43:58.846Z,64.23
2018-05-26T01:46:28.541Z,62.63
2018-05-26T01:51:36.475Z,65.20
2018-05-26T01:54:07.196Z,59.67
2018-05-26T01:56:37.363Z,59.53
2018-05-26T01:59:08.452Z,62.63
2018-05-26T02:01:40.167Z,57.87
2018-05-26T02:04:09.568Z,67.53
2018-05-26T02:06:40.397Z,60.47
2018-05-26T02:09:10.309Z,60.77
2018-05-26T02:11:39.981Z,60.20
2018-05-26T02:14:11.132Z,54.20
2018-05-26T02:16:40.399Z,49.57
2018-05-26T02:19:10.629Z,52.87
2018-05-26T02:21:42.234Z,49.33
2018-05-26T02:24:12.804Z,46.90
2018-05-26T02:26:42.217Z,40.53
2018-05-26T02:29:12.355Z,43.17
2018-05-26T02:31:45.133Z,46.87
2018-05-26T02:34:14.578Z,46.83
2018-05-26T02:36:45.501Z,40.83
2018-05-26T02:39:14.836Z,40.33
2018-05-26T02:41:44.923Z,41.03
2018-05-26T02:44:18.120Z,42.63
2018-05-26T02:47:18.358Z,50.03
2018-05-26T02:49:48.445Z,44.57
2018-05-26T02:52:17.733Z,49.50
2018-05-26T02:54:46.918Z,52.53
2018-05-26T02:59:50.680Z,49.33
2018-05-26T03:05:07.602Z,47.83
2018-05-26T03:07:43.007Z,43.37
2018-05-26T03:10:19.924Z,39.97
2018-05-26T03:12:54.742Z,39.27
2018-05-26T03:15:24.846Z,34.37
2018-05-26T03:18:08.907Z,36.43
2018-05-26T03:20:48.238Z,44.70
2018-05-26T03:25:56.940Z,62.07
2018-05-26T03:28:27.807Z,59.03
2018-05-26T03:30:58.645Z,74.00
2018-05-26T03:33:28.087Z,68.53
2018-05-26T03:35:58.566Z,83.17
2018-05-26T03:38:29.407Z,89.30
2018-05-26T03:40:59.711Z,91.10
2018-05-26T03:43:30.904Z,86.83
2018-05-26T03:46:01.448Z,97.47
2018-05-26T03:48:31.877Z,107.73
2018-05-26T03:51:06.095Z,92.07
2018-05-26T03:53:36.953Z,118.90
2018-05-26T03:56:18.311Z,120.20
2018-05-26T03:59:00.611Z,122.40
2018-05-26T04:01:30.862Z,123.30
2018-05-26T04:04:00.466Z,111.83
2018-05-26T04:06:30.481Z,131.77
2018-05-26T04:09:01.758Z,107.67
2018-05-26T04:14:34.662Z,102.47
2018-05-26T04:17:06.043Z,100.30
2018-05-26T04:19:38.625Z,88.50
2018-05-26T04:22:08.401Z,87.10
2018-05-26T04:24:37.875Z,77.33
2018-05-26T04:27:07.359Z,86.53
2018-05-26T04:29:37.442Z,71.40
2018-05-26T04:32:06.860Z,78.20
2018-05-26T04:34:36.241Z,73.97
2018-05-26T04:37:06.405Z,79.00
2018-05-26T04:39:37.848Z,85.87
2018-05-26T04:42:08.156Z,95.30
2018-05-26T04:44:37.781Z,122.70
2018-05-26T04:47:07.257Z,104.23
2018-05-26T04:49:39.387Z,95.03
2018-05-26T04:52:08.732Z,103.93
2018-05-26T04:54:38.022Z,93.57
2018-05-26T04:57:07.207Z,88.23
2018-05-26T04:59:36.820Z,87.77
2018-05-26T05:02:06.202Z,85.80
2018-05-26T05:04:37.591Z,84.57
2018-05-26T05:07:06.913Z,112.17
2018-05-26T05:09:36.997Z,99.70
2018-05-26T05:12:10.077Z,67.00
2018-05-26T05:14:40.510Z,57.43
2018-05-26T05:17:10.186Z,60.30
2018-05-26T05:19:39.463Z,70.47
2018-05-26T05:22:08.691Z,94.00
2018-05-26T05:24:38.487Z,110.03
2018-05-26T05:27:09.334Z,117.30
2018-05-26T05:29:42.703Z,102.13
2018-05-26T05:34:45.768Z,88.23
2018-05-26T05:37:15.440Z,90.37
2018-05-26T05:39:45.645Z,74.03
2018-05-26T05:42:16.578Z,87.83
2018-05-26T05:44:46.824Z,60.80
2018-05-26T05:47:16.618Z,79.00
2018-05-26T05:49:53.556Z,63.63
2018-05-26T05:52:27.941Z,57.10
2018-05-26T05:54:58.225Z,57.97
2018-05-26T05:57:29.019Z,53.20
2018-05-26T06:00:00.551Z,45.00
2018-05-26T06:02:29.899Z,48.47
2018-05-26T06:04:59.101Z,53.20
2018-05-26T06:07:28.271Z,42.07
2018-05-26T06:09:58.647Z,41.80
2018-05-26T06:12:27.881Z,40.93
2018-05-26T06:15:00.725Z,36.27
2018-05-26T06:17:29.917Z,36.10
2018-05-26T06:19:59.130Z,44.47
2018-05-26T06:22:28.510Z,45.80
2018-05-26T06:24:58.642Z,58.60
2018-05-26T06:27:28.594Z,50.83
2018-05-26T06:29:59.506Z,54.93
2018-05-26T06:32:28.862Z,46.57
2018-05-26T06:34:58.035Z,51.37
2018-05-26T06:37:27.238Z,58.93
2018-05-26T06:39:56.425Z,59.13
2018-05-26T06:42:25.708Z,54.93
2018-05-26T06:44:55.358Z,50.07
2018-05-26T06:47:24.536Z,53.30
2018-05-26T06:49:53.759Z,44.57
2018-05-26T06:52:22.997Z,51.20
2018-05-26T06:54:52.179Z,51.57
2018-05-26T06:57:22.177Z,68.27
2018-05-26T06:59:51.671Z,86.03
2018-05-26T07:02:20.921Z,100.33
2018-05-26T07:04:52.366Z,142.57
2018-05-26T07:07:21.561Z,94.27
2018-05-26T07:09:50.862Z,108.43
2018-05-26T07:12:20.174Z,122.73
2018-05-26T07:14:49.541Z,119.50
2018-05-26T07:17:20.293Z,113.07
2018-05-26T07:19:49.901Z,119.13
2018-05-26T07:22:19.107Z,120.93
2018-05-26T07:24:48.373Z,109.27
2018-05-26T07:27:17.780Z,136.80
2018-05-26T07:29:51.969Z,147.83
2018-05-26T07:32:21.434Z,167.93
2018-05-26T07:34:50.858Z,187.37
2018-05-26T07:37:20.866Z,174.13
2018-05-26T07:39:50.110Z,205.50
2018-05-26T07:42:20.470Z,187.77
2018-05-26T07:44:49.716Z,193.63
2018-05-26T07:47:19.068Z,178.17
2018-05-26T07:49:48.487Z,180.73
2018-05-26T07:52:17.808Z,175.20
2018-05-26T07:54:47.055Z,169.17
2018-05-26T07:57:16.407Z,160.20
2018-05-26T07:59:45.686Z,212.63
2018-05-26T08:02:14.840Z,161.93
2018-05-26T08:04:44.827Z,147.07
2018-05-26T08:07:14.891Z,139.23
2018-05-26T08:09:44.145Z,170.57
2018-05-26T08:12:13.438Z,164.13
2018-05-26T08:14:42.809Z,172.63
2018-05-26T08:17:12.438Z,188.10
2018-05-26T08:19:42.721Z,170.40
2018-05-26T08:22:13.161Z,147.40
2018-05-26T08:24:42.378Z,182.27
2018-05-26T08:27:11.639Z,174.63
2018-05-26T08:29:41.194Z,156.23
2018-05-26T08:32:10.475Z,156.33
2018-05-26T08:34:39.656Z,154.67
2018-05-26T08:37:08.890Z,180.73
2018-05-26T08:39:38.383Z,140.10
2018-05-26T08:42:07.560Z,155.33
2018-05-26T08:44:36.931Z,143.90
2018-05-26T08:47:06.206Z,183.27
2018-05-26T08:49:35.658Z,159.57
2018-05-26T08:52:05.025Z,157.87
2018-05-26T08:54:34.222Z,146.90
2018-05-26T08:57:04.248Z,149.53
2018-05-26T08:59:34.280Z,116.37
2018-05-26T09:02:03.580Z,111.63
2018-05-26T09:04:32.819Z,120.67
2018-05-26T09:07:02.158Z,109.63
2018-05-26T09:09:31.361Z,98.83
2018-05-26T09:12:00.548Z,120.33
2018-05-26T09:14:30.543Z,95.70
2018-05-26T09:17:00.589Z,130.97
2018-05-26T09:19:29.864Z,115.90
2018-05-26T09:21:59.905Z,149.70
2018-05-26T09:24:29.511Z,139.17
2018-05-26T09:26:58.664Z,161.03
2018-05-26T09:29:27.847Z,142.33
2018-05-26T09:31:57.048Z,106.70
2018-05-26T09:34:26.248Z,90.73
2018-05-26T09:36:55.556Z,81.73
2018-05-26T09:39:24.755Z,61.00
2018-05-26T09:41:53.983Z,59.33
2018-05-26T09:44:23.299Z,54.00
2018-05-26T09:46:52.618Z,53.83
2018-05-26T09:49:21.933Z,61.90
2018-05-26T09:51:51.138Z,50.87
2018-05-26T09:54:20.402Z,54.00
2018-05-26T09:56:49.851Z,62.90
2018-05-26T09:59:19.773Z,58.00
2018-05-26T10:01:49.734Z,52.87
2018-05-26T10:04:19.120Z,50.77
2018-05-26T10:06:48.384Z,49.20
2018-05-26T10:09:17.660Z,57.90
2018-05-26T10:11:46.930Z,71.70
2018-05-26T10:14:16.242Z,78.00
2018-05-26T10:16:45.469Z,78.63
2018-05-26T10:19:14.590Z,76.37
2018-05-26T10:21:44.600Z,65.90
2018-05-26T10:24:14.661Z,66.53
2018-05-26T10:26:44.110Z,60.37
2018-05-26T10:29:13.354Z,72.07
2018-05-26T10:31:42.543Z,74.43
2018-05-26T10:34:11.738Z,132.07
2018-05-26T10:36:40.957Z,129.20
2018-05-26T10:39:10.119Z,109.07
2018-05-26T10:41:40.151Z,107.37
2018-05-26T10:44:09.374Z,127.53
2018-05-26T10:46:38.582Z,131.90
2018-05-26T10:49:07.927Z,96.87
2018-05-26T10:51:37.021Z,119.87
2018-05-26T10:54:07.012Z,123.87
2018-05-26T10:56:36.218Z,149.83
2018-05-26T10:59:05.414Z,117.53
2018-05-26T11:01:35.519Z,100.17
2018-05-26T11:04:05.851Z,92.87
2018-05-26T11:06:47.482Z,89.80
2018-05-26T11:09:16.776Z,102.70
2018-05-26T11:11:46.224Z,118.93
2018-05-26T11:14:15.578Z,105.90
2018-05-26T11:16:44.869Z,132.10
2018-05-26T11:19:14.532Z,110.37
2018-05-26T11:21:43.733Z,108.97
2018-05-26T11:24:13.065Z,123.53
2018-05-26T11:26:44.857Z,122.93
2018-05-26T11:29:14.617Z,131.07
2018-05-26T11:31:44.661Z,123.63
2018-05-26T11:34:14.036Z,108.37
2018-05-26T11:36:43.703Z,107.90
2018-05-26T11:39:12.860Z,108.20
2018-05-26T11:41:42.042Z,93.10
2018-05-26T11:44:13.032Z,100.73
2018-05-26T11:46:42.228Z,95.13
2018-05-26T11:49:11.924Z,96.27
2018-05-26T11:51:41.330Z,95.63
2018-05-26T11:54:12.504Z,81.03
2018-05-26T11:56:41.651Z,83.87
2018-05-26T11:59:10.897Z,104.37
2018-05-26T12:01:40.953Z,118.63
2018-05-26T12:04:10.311Z,100.80
2018-05-26T12:06:43.252Z,86.80
2018-05-26T12:09:12.605Z,100.77
2018-05-26T12:11:57.787Z,84.57
2018-05-26T12:14:29.004Z,87.37
2018-05-26T12:16:58.335Z,81.73
2018-05-26T12:19:29.448Z,87.70
2018-05-26T12:21:58.687Z,77.97
2018-05-26T12:24:29.040Z,67.63
2018-05-26T12:26:59.491Z,71.67
2018-05-26T12:29:29.678Z,90.47
2018-05-26T12:32:00.141Z,109.03
2018-05-26T12:34:31.879Z,137.70
2018-05-26T12:37:29.793Z,105.70
2018-05-26T12:40:00.946Z,139.17
2018-05-26T12:42:32.705Z,141.40
2018-05-26T12:45:04.151Z,151.40
2018-05-26T12:47:41.569Z,154.57
2018-05-26T12:50:11.762Z,141.63
2018-05-26T12:52:42.125Z,150.43
2018-05-26T12:55:12.225Z,124.20
2018-05-26T12:57:42.376Z,118.27
2018-05-26T13:00:12.053Z,100.77
2018-05-26T13:02:41.418Z,86.53
2018-05-26T13:05:11.263Z,101.50
2018-05-26T13:21:36.733Z,90.10
2018-05-26T13:24:09.878Z,85.03
2018-05-26T13:26:39.853Z,85.37
2018-05-26T13:29:10.380Z,82.07
2018-05-26T13:31:41.454Z,79.60
2018-05-26T13:34:12.083Z,83.70
2018-05-26T13:36:41.829Z,89.17
2018-05-26T13:39:11.028Z,76.37
2018-05-26T13:41:41.459Z,81.07
2018-05-26T13:44:14.007Z,67.93
2018-05-26T13:46:53.451Z,59.23
2018-05-26T13:57:28.569Z,56.87
2018-05-26T14:02:55.576Z,55.47
2018-05-26T14:05:29.821Z,55.83
2018-05-26T14:08:12.124Z,38.73
2018-05-26T14:17:43.169Z,36.87
2018-05-26T14:22:51.835Z,27.03
2018-05-26T14:28:14.183Z,29.10
2018-05-26T14:33:21.052Z,23.30
2018-05-26T14:35:53.698Z,21.40
2018-05-26T14:39:02.275Z,28.60
2018-05-26T14:41:44.327Z,23.47
2018-05-26T14:44:48.849Z,24.53
2018-05-26T14:51:14.662Z,33.10
2018-05-26T15:30:17.838Z,24.30
2018-05-26T15:32:57.563Z,32.90
2018-05-26T15:58:54.525Z,33.17
2018-05-26T16:01:35.477Z,23.97
2018-05-26T16:04:17.187Z,30.97
2018-05-26T16:06:50.876Z,26.03
2018-05-26T16:09:24.248Z,32.30
2018-05-26T16:12:13.140Z,28.33
2018-05-26T16:20:37.254Z,44.37
2018-05-26T16:23:21.942Z,36.33
2018-05-26T16:36:35.653Z,33.67
2018-05-26T16:46:22.907Z,34.30
2018-05-26T16:48:54.977Z,34.47
2018-05-26T16:51:26.206Z,38.37
2018-05-26T16:53:57.249Z,35.13
2018-05-26T16:56:28.648Z,30.77
2018-05-26T16:59:05.102Z,33.70
2018-05-26T17:01:36.508Z,31.37
2018-05-26T17:04:07.513Z,31.53
2018-05-26T17:09:37.142Z,33.97
2018-05-26T18:00:46.335Z,26.10
2018-05-26T18:03:24.598Z,23.40
2018-05-26T18:05:57.660Z,24.20
2018-05-26T18:14:13.443Z,19.30
2018-05-26T18:16:45.498Z,18.83
2018-05-26T18:19:17.105Z,22.43
2018-05-26T18:21:49.106Z,23.77
2018-05-26T18:24:19.842Z,18.00
2018-05-26T18:37:49.079Z,18.75
2018-05-26T18:43:28.972Z,17.30
2018-05-26T18:46:00.994Z,18.02
2018-05-26T18:51:17.982Z,20.35
2018-05-26T18:53:48.393Z,19.65
2018-05-26T18:56:22.542Z,20.57
2018-05-26T19:01:37.043Z,18.47
2018-05-26T19:04:14.704Z,20.12
2018-05-26T19:06:44.743Z,17.60
2018-05-26T19:09:14.469Z,23.30
2018-05-26T19:11:46.989Z,19.17
2018-05-26T19:14:19.272Z,17.80
2018-05-26T19:16:56.684Z,17.03
2018-05-26T19:19:28.400Z,16.50
2018-05-26T19:22:00.479Z,21.27
2018-05-26T19:28:08.520Z,21.60
2018-05-26T19:30:41.731Z,20.67
2018-05-26T19:33:30.975Z,17.92
2018-05-26T19:41:47.390Z,21.83
2018-05-26T19:44:29.040Z,19.17
2018-05-26T19:47:03.154Z,19.90
2018-05-26T19:49:42.559Z,19.33
2018-05-26T19:52:13.337Z,20.50
2018-05-26T19:54:48.030Z,18.40
2018-05-26T19:57:17.748Z,18.50
2018-05-26T20:00:00.302Z,16.37
2018-05-26T20:02:43.332Z,17.93
2018-05-26T20:05:13.275Z,17.23
2018-05-26T20:07:48.777Z,16.03
2018-05-26T20:10:38.304Z,17.45
2018-05-26T20:13:18.299Z,16.00
2018-05-26T20:15:49.979Z,20.10
2018-05-26T20:27:31.881Z,25.07
2018-05-26T20:30:23.068Z,18.30
2018-05-26T20:32:55.237Z,19.93
2018-05-26T20:35:29.852Z,17.93
2018-05-26T20:40:57.279Z,18.17
2018-05-26T20:43:30.643Z,19.53
2018-05-26T20:46:04.758Z,20.80
2018-05-26T20:51:45.021Z,16.13
2018-05-26T20:57:35.658Z,16.63
2018-05-26T21:00:09.602Z,15.07
2018-05-26T21:05:19.638Z,17.37
2018-05-26T21:10:39.935Z,17.67
2018-05-26T21:13:12.744Z,17.87
2018-05-26T21:21:08.102Z,16.10
2018-05-26T21:23:51.142Z,20.77
2018-05-26T21:26:22.346Z,14.70
2018-05-26T21:28:51.631Z,14.67
2018-05-26T21:31:23.058Z,17.40
2018-05-26T21:33:58.771Z,16.50
2018-05-26T21:36:33.847Z,15.67
2018-05-26T21:44:20.020Z,16.10
2018-05-26T21:46:49.174Z,15.43
2018-05-26T21:49:18.896Z,17.73
2018-05-26T21:51:50.687Z,19.37
2018-05-26T21:54:21.495Z,18.27
2018-05-26T21:56:50.772Z,15.87
2018-05-26T21:59:20.065Z,18.63
2018-05-26T22:01:58.066Z,16.33
2018-05-26T22:04:39.643Z,18.67
2018-05-26T22:07:14.720Z,17.27
2018-05-26T22:09:48.034Z,15.03
2018-05-26T22:12:24.755Z,16.80
2018-05-26T22:14:54.905Z,16.87
2018-05-26T22:17:25.896Z,18.67
2018-05-26T22:19:56.893Z,17.67
2018-05-26T22:22:37.042Z,15.50
2018-05-26T22:25:09.867Z,15.70
2018-05-26T22:27:45.728Z,18.20
2018-05-26T22:30:22.539Z,14.63
2018-05-26T22:32:56.277Z,20.33
2018-05-26T22:35:34.669Z,19.00
2018-05-26T22:38:11.145Z,20.77
2018-05-26T22:40:54.499Z,18.03
2018-05-26T22:43:25.649Z,21.73
2018-05-26T22:45:55.384Z,21.50
2018-05-26T22:48:32.550Z,23.97
2018-05-26T22:51:02.619Z,21.40
2018-05-26T22:53:34.597Z,23.70
2018-05-26T22:58:42.013Z,22.90
2018-05-26T23:01:16.277Z,23.93
2018-05-26T23:03:46.465Z,25.17
2018-05-26T23:06:17.148Z,24.83
2018-05-26T23:08:50.858Z,25.40
2018-05-26T23:14:15.977Z,27.70
2018-05-26T23:16:47.414Z,29.47
2018-05-26T23:19:23.117Z,29.90
2018-05-26T23:24:42.985Z,31.63
2018-05-26T23:27:12.318Z,34.33
2018-05-26T23:29:47.707Z,37.67
2018-05-26T23:32:23.189Z,35.03
2018-05-26T23:34:58.714Z,35.47
2018-05-26T23:37:41.453Z,38.80
2018-05-26T23:40:47.489Z,38.97
2018-05-26T23:43:19.433Z,41.53
2018-05-26T23:45:49.695Z,35.13
2018-05-26T23:48:22.321Z,38.50
2018-05-26T23:53:27.662Z,36.67
2018-05-26T23:55:59.957Z,39.50
2018-05-26T23:58:35.268Z,39.23
